Terminal Aerodrome Forecast
Issued by NWS Binghamton, NY

Home | Current Version | Previous Version | Text Only | Print | Product List | Glossary On
Versions: 1 2 3 4 5 6 7 8 9 10 11 12 13 14 15 16 17 18 19
393
FTUS41 KBGM 182327
TAFAVP
TAF
KAVP 182327Z 1900/1924 19006KT P6SM -RA OVC012
     FM190600 19011KT 3SM -RA BR OVC012
     FM191100 24012G22KT P6SM OVC010
     FM191500 28017G31KT P6SM OVC025
     FM191700 29017G34KT P6SM BKN035=

USA.gov is the U.S. government's official web portal to all federal, state and local government web resources and services.